createdAt,value
2022-09-06T00:05:05.238Z,20
2022-09-06T00:15:06.893Z,19.9
2022-09-06T00:35:10.390Z,19.7
2022-09-06T00:45:12.810Z,19.7
2022-09-06T00:55:15.114Z,19.6
2022-09-06T01:05:17.364Z,19.6
2022-09-06T01:15:19.404Z,19.6
2022-09-06T01:25:21.471Z,19.7
2022-09-06T01:35:23.757Z,19.4
2022-09-06T01:55:27.521Z,19.8
2022-09-06T02:05:29.945Z,19.8
2022-09-06T02:15:32.048Z,19.6
2022-09-06T02:25:34.554Z,19.8
2022-09-06T02:35:36.559Z,19.8
2022-09-06T02:45:39.054Z,19.7
2022-09-06T02:55:41.258Z,19.6
2022-09-06T03:05:43.262Z,19.5
2022-09-06T03:25:47.040Z,19.4
2022-09-06T03:35:49.169Z,19.4
2022-09-06T03:45:51.671Z,19.5
2022-09-06T03:55:54.080Z,19.2
2022-09-06T04:05:56.599Z,19.4
2022-09-06T04:15:58.975Z,19.4
2022-09-06T04:26:00.665Z,19.3
2022-09-06T04:36:02.557Z,19.2
2022-09-06T04:46:04.835Z,18.9
2022-09-06T04:56:06.954Z,18.9
2022-09-06T05:06:09.021Z,19
2022-09-06T05:16:11.595Z,19.1
2022-09-06T05:36:15.917Z,19.3
2022-09-06T05:46:18.556Z,19.6
2022-09-06T05:56:21.016Z,19.8
2022-09-06T06:16:24.952Z,19.8
2022-09-06T06:26:26.805Z,20.1
2022-09-06T06:36:29.010Z,20.4
2022-09-06T06:46:31.039Z,20.6
2022-09-06T06:56:33.224Z,20.6
2022-09-06T07:16:37.733Z,21.3
2022-09-06T07:26:39.900Z,21.7
2022-09-06T07:36:42.004Z,22.7
2022-09-06T07:46:44.827Z,23.7
2022-09-06T07:56:46.863Z,23.8
2022-09-06T08:16:50.161Z,25.6
2022-09-06T08:26:52.403Z,24.7
2022-09-06T08:36:54.984Z,25.9
2022-09-06T08:46:56.875Z,26.1
2022-09-06T09:07:01.574Z,26.8
2022-09-06T09:17:03.970Z,26.8
2022-09-06T09:27:06.211Z,27
2022-09-06T09:47:11.096Z,27.3
2022-09-06T09:57:13.218Z,27.2
2022-09-06T10:07:15.837Z,27.4
2022-09-06T10:17:17.967Z,26.9
2022-09-06T10:27:20.168Z,27.2
2022-09-06T10:37:22.643Z,27.9
2022-09-06T10:47:24.516Z,28.1
2022-09-06T11:07:28.684Z,29.2
2022-09-06T11:17:31.158Z,29
2022-09-06T11:27:33.209Z,28.4
2022-09-06T11:37:35.722Z,29.3
2022-09-06T11:47:37.647Z,29.1
2022-09-06T11:57:40.171Z,29.9
2022-09-06T12:07:41.883Z,29.3
2022-09-06T13:07:54.654Z,30.2
2022-09-06T13:17:57.077Z,30.4
2022-09-06T13:18:19.005Z,30.4
2022-09-06T13:38:07.686Z,29.3
2022-09-06T13:48:28.227Z,30.4
2022-09-06T13:58:12.025Z,30.6
2022-09-06T14:08:14.401Z,30.2
2022-09-06T14:18:16.990Z,30.7
2022-09-06T14:48:23.199Z,30.6
2022-09-06T15:08:27.541Z,30.7
2022-09-06T15:18:29.617Z,29.4
2022-09-06T15:28:31.284Z,30.5
2022-09-06T15:38:33.105Z,29.6
2022-09-06T15:48:35.551Z,29.5
2022-09-06T16:08:40.246Z,29.4
2022-09-06T16:18:42.081Z,29.1
2022-09-06T16:28:44.032Z,29.2
2022-09-06T16:38:45.804Z,29
2022-09-06T16:58:49.989Z,28.7
2022-09-06T17:08:52.294Z,28.5
2022-09-06T17:18:54.390Z,28.2
2022-09-06T17:38:58.922Z,27.1
2022-09-06T17:49:01.299Z,26.7
2022-09-06T17:59:03.547Z,26.4
2022-09-06T18:09:05.753Z,25.8
2022-09-06T18:19:08.321Z,25.4
2022-09-06T18:29:10.129Z,25.1
2022-09-06T18:39:12.082Z,24.8
2022-09-06T18:49:13.880Z,24.6
2022-09-06T18:59:16.223Z,24.1
2022-09-06T19:09:18.483Z,23.7
2022-09-06T19:19:21.110Z,23.5
2022-09-06T19:29:22.847Z,23.1
2022-09-06T19:39:25.274Z,22.9
2022-09-06T19:49:27.866Z,22.7
2022-09-06T19:59:29.515Z,22.4
2022-09-06T20:09:31.341Z,22.3
2022-09-06T20:19:33.754Z,22
2022-09-06T20:29:35.752Z,21.5
2022-09-06T20:39:38.042Z,21.3
2022-09-06T20:49:40.433Z,21.3
2022-09-06T20:59:42.083Z,21.3
2022-09-06T21:09:44.376Z,21.1
2022-09-06T21:19:46.273Z,21.5
2022-09-06T21:29:48.838Z,21.4
2022-09-06T21:39:51.105Z,21.3
2022-09-06T21:49:53.050Z,21.3
2022-09-06T21:59:54.847Z,21.2
2022-09-06T22:09:56.739Z,20.7
2022-09-06T22:19:59.195Z,21.6
2022-09-06T22:30:01.319Z,22.7
2022-09-06T22:40:03.886Z,23.7
2022-09-06T22:50:06.253Z,23.4
2022-09-06T23:00:08.524Z,23.4
2022-09-06T23:20:12.617Z,23.3
2022-09-06T23:30:14.824Z,23.1
2022-09-06T23:40:17.135Z,22.7
2022-09-06T23:50:18.973Z,22.7
